sensor_id;sensor_type;location;lat;lon;timestamp;P1;durP1;ratioP1;P2;durP2;ratioP2
58196;SDS011;43999;51.660;5.616;2023-03-23T00:01:17;6.75;;;4.72;;
58196;SDS011;43999;51.660;5.616;2023-03-23T00:03:49;7.43;;;4.60;;
58196;SDS011;43999;51.660;5.616;2023-03-23T00:06:19;7.13;;;5.15;;
58196;SDS011;43999;51.660;5.616;2023-03-23T00:08:47;5.68;;;4.85;;
58196;SDS011;43999;51.660;5.616;2023-03-23T00:11:28;5.78;;;5.05;;
58196;SDS011;43999;51.660;5.616;2023-03-23T00:13:58;6.20;;;5.00;;
58196;SDS011;43999;51.660;5.616;2023-03-23T00:16:27;4.90;;;4.40;;
58196;SDS011;43999;51.660;5.616;2023-03-23T00:18:59;4.97;;;4.40;;
58196;SDS011;43999;51.660;5.616;2023-03-23T00:21:38;5.18;;;4.28;;
58196;SDS011;43999;51.660;5.616;2023-03-23T00:24:08;7.95;;;4.95;;
58196;SDS011;43999;51.660;5.616;2023-03-23T00:26:41;4.45;;;3.60;;
58196;SDS011;43999;51.660;5.616;2023-03-23T00:29:15;8.10;;;4.90;;
58196;SDS011;43999;51.660;5.616;2023-03-23T00:31:51;6.53;;;4.82;;
58196;SDS011;43999;51.660;5.616;2023-03-23T00:34:18;6.38;;;5.30;;
58196;SDS011;43999;51.660;5.616;2023-03-23T00:36:51;9.88;;;4.75;;
58196;SDS011;43999;51.660;5.616;2023-03-23T00:39:22;7.47;;;5.15;;
58196;SDS011;43999;51.660;5.616;2023-03-23T00:41:50;7.47;;;5.45;;
58196;SDS011;43999;51.660;5.616;2023-03-23T00:44:18;5.78;;;4.43;;
58196;SDS011;43999;51.660;5.616;2023-03-23T00:46:48;6.43;;;4.32;;
58196;SDS011;43999;51.660;5.616;2023-03-23T00:49:16;6.70;;;4.93;;
58196;SDS011;43999;51.660;5.616;2023-03-23T00:51:50;7.22;;;4.57;;
58196;SDS011;43999;51.660;5.616;2023-03-23T00:54:23;5.57;;;4.97;;
58196;SDS011;43999;51.660;5.616;2023-03-23T00:56:53;7.30;;;4.80;;
58196;SDS011;43999;51.660;5.616;2023-03-23T00:59:22;4.97;;;4.47;;
58196;SDS011;43999;51.660;5.616;2023-03-23T01:01:51;5.70;;;5.05;;
58196;SDS011;43999;51.660;5.616;2023-03-23T01:04:18;9.52;;;5.55;;
58196;SDS011;43999;51.660;5.616;2023-03-23T01:06:46;5.63;;;4.97;;
58196;SDS011;43999;51.660;5.616;2023-03-23T01:09:16;4.88;;;4.25;;
58196;SDS011;43999;51.660;5.616;2023-03-23T01:11:47;6.80;;;6.10;;
58196;SDS011;43999;51.660;5.616;2023-03-23T01:14:18;8.32;;;5.55;;
58196;SDS011;43999;51.660;5.616;2023-03-23T01:16:48;6.35;;;4.90;;
58196;SDS011;43999;51.660;5.616;2023-03-23T01:19:15;8.00;;;6.57;;
58196;SDS011;43999;51.660;5.616;2023-03-23T01:21:41;6.68;;;5.53;;
58196;SDS011;43999;51.660;5.616;2023-03-23T01:26:35;8.50;;;5.25;;
58196;SDS011;43999;51.660;5.616;2023-03-23T01:29:01;9.65;;;5.50;;
58196;SDS011;43999;51.660;5.616;2023-03-23T01:31:28;7.68;;;5.57;;
58196;SDS011;43999;51.660;5.616;2023-03-23T01:33:54;5.60;;;5.00;;
58196;SDS011;43999;51.660;5.616;2023-03-23T01:36:23;8.13;;;5.85;;
58196;SDS011;43999;51.660;5.616;2023-03-23T01:39:00;6.70;;;4.43;;
58196;SDS011;43999;51.660;5.616;2023-03-23T01:41:30;8.50;;;5.47;;
58196;SDS011;43999;51.660;5.616;2023-03-23T01:44:05;7.65;;;5.50;;
58196;SDS011;43999;51.660;5.616;2023-03-23T01:47:03;5.80;;;4.70;;
58196;SDS011;43999;51.660;5.616;2023-03-23T01:49:31;6.22;;;4.93;;
58196;SDS011;43999;51.660;5.616;2023-03-23T01:52:16;6.57;;;6.03;;
58196;SDS011;43999;51.660;5.616;2023-03-23T01:57:26;6.65;;;5.60;;
58196;SDS011;43999;51.660;5.616;2023-03-23T01:59:56;7.63;;;5.28;;
58196;SDS011;43999;51.660;5.616;2023-03-23T02:02:44;6.75;;;5.47;;
58196;SDS011;43999;51.660;5.616;2023-03-23T02:05:24;8.10;;;5.28;;
58196;SDS011;43999;51.660;5.616;2023-03-23T02:08:17;7.85;;;6.20;;
58196;SDS011;43999;51.660;5.616;2023-03-23T02:10:46;7.18;;;6.00;;
58196;SDS011;43999;51.660;5.616;2023-03-23T02:13:12;6.22;;;5.22;;
58196;SDS011;43999;51.660;5.616;2023-03-23T02:15:43;6.05;;;5.45;;
58196;SDS011;43999;51.660;5.616;2023-03-23T02:23:01;6.03;;;5.30;;
58196;SDS011;43999;51.660;5.616;2023-03-23T02:26:21;5.65;;;4.40;;
58196;SDS011;43999;51.660;5.616;2023-03-23T02:29:23;5.55;;;4.95;;
58196;SDS011;43999;51.660;5.616;2023-03-23T02:39:21;7.57;;;5.32;;
58196;SDS011;43999;51.660;5.616;2023-03-23T02:42:13;5.68;;;5.18;;
58196;SDS011;43999;51.660;5.616;2023-03-23T02:44:50;6.72;;;5.00;;
58196;SDS011;43999;51.660;5.616;2023-03-23T02:47:21;6.93;;;5.38;;
58196;SDS011;43999;51.660;5.616;2023-03-23T02:49:55;6.13;;;5.53;;
58196;SDS011;43999;51.660;5.616;2023-03-23T02:52:29;6.97;;;5.22;;
58196;SDS011;43999;51.660;5.616;2023-03-23T02:54:59;6.07;;;5.45;;
58196;SDS011;43999;51.660;5.616;2023-03-23T02:57:27;6.80;;;5.03;;
58196;SDS011;43999;51.660;5.616;2023-03-23T02:59:57;5.65;;;4.35;;
58196;SDS011;43999;51.660;5.616;2023-03-23T03:11:08;6.20;;;5.70;;
58196;SDS011;43999;51.660;5.616;2023-03-23T03:16:45;5.78;;;4.85;;
58196;SDS011;43999;51.660;5.616;2023-03-23T03:19:32;5.33;;;4.83;;
58196;SDS011;43999;51.660;5.616;2023-03-23T03:22:06;6.80;;;5.63;;
58196;SDS011;43999;51.660;5.616;2023-03-23T03:24:39;6.15;;;4.88;;
58196;SDS011;43999;51.660;5.616;2023-03-23T03:27:11;6.55;;;5.20;;
58196;SDS011;43999;51.660;5.616;2023-03-23T03:29:53;5.97;;;4.93;;
58196;SDS011;43999;51.660;5.616;2023-03-23T03:32:29;5.20;;;4.70;;
58196;SDS011;43999;51.660;5.616;2023-03-23T03:35:07;5.55;;;4.97;;
58196;SDS011;43999;51.660;5.616;2023-03-23T03:37:37;6.43;;;4.78;;
58196;SDS011;43999;51.660;5.616;2023-03-23T03:40:07;5.40;;;4.90;;
58196;SDS011;43999;51.660;5.616;2023-03-23T03:42:40;7.97;;;5.03;;
58196;SDS011;43999;51.660;5.616;2023-03-23T03:45:11;5.25;;;4.70;;
58196;SDS011;43999;51.660;5.616;2023-03-23T03:47:43;8.30;;;5.57;;
58196;SDS011;43999;51.660;5.616;2023-03-23T03:50:11;7.53;;;5.20;;
58196;SDS011;43999;51.660;5.616;2023-03-23T03:52:44;7.93;;;4.78;;
58196;SDS011;43999;51.660;5.616;2023-03-23T03:55:10;5.45;;;4.43;;
58196;SDS011;43999;51.660;5.616;2023-03-23T03:57:40;5.55;;;4.95;;
58196;SDS011;43999;51.660;5.616;2023-03-23T04:00:31;5.55;;;4.78;;
58196;SDS011;43999;51.660;5.616;2023-03-23T04:02:57;5.25;;;3.75;;
58196;SDS011;43999;51.660;5.616;2023-03-23T04:05:43;4.35;;;3.92;;
58196;SDS011;43999;51.660;5.616;2023-03-23T04:08:11;9.88;;;4.65;;
58196;SDS011;43999;51.660;5.616;2023-03-23T04:10:39;6.25;;;5.28;;
58196;SDS011;43999;51.660;5.616;2023-03-23T04:13:06;6.35;;;4.07;;
58196;SDS011;43999;51.660;5.616;2023-03-23T04:15:51;5.20;;;4.53;;
58196;SDS011;43999;51.660;5.616;2023-03-23T04:18:18;6.75;;;4.05;;
58196;SDS011;43999;51.660;5.616;2023-03-23T04:20:46;10.25;;;5.63;;
58196;SDS011;43999;51.660;5.616;2023-03-23T04:23:16;7.45;;;3.83;;
58196;SDS011;43999;51.660;5.616;2023-03-23T04:25:51;5.78;;;4.45;;
58196;SDS011;43999;51.660;5.616;2023-03-23T04:28:24;7.57;;;4.03;;
58196;SDS011;43999;51.660;5.616;2023-03-23T04:31:11;6.32;;;3.50;;
58196;SDS011;43999;51.660;5.616;2023-03-23T04:33:43;5.75;;;3.80;;
58196;SDS011;43999;51.660;5.616;2023-03-23T04:36:12;10.80;;;3.95;;
58196;SDS011;43999;51.660;5.616;2023-03-23T04:38:50;6.78;;;3.85;;
58196;SDS011;43999;51.660;5.616;2023-03-23T04:41:22;6.05;;;3.85;;
58196;SDS011;43999;51.660;5.616;2023-03-23T04:44:12;5.65;;;3.30;;
58196;SDS011;43999;51.660;5.616;2023-03-23T04:46:46;9.13;;;4.35;;
58196;SDS011;43999;51.660;5.616;2023-03-23T04:49:18;9.23;;;3.78;;
58196;SDS011;43999;51.660;5.616;2023-03-23T04:51:49;5.38;;;3.30;;
58196;SDS011;43999;51.660;5.616;2023-03-23T04:54:38;6.45;;;4.03;;
58196;SDS011;43999;51.660;5.616;2023-03-23T04:57:10;7.03;;;3.13;;
58196;SDS011;43999;51.660;5.616;2023-03-23T04:59:45;8.45;;;3.80;;
58196;SDS011;43999;51.660;5.616;2023-03-23T05:02:22;7.15;;;3.38;;
58196;SDS011;43999;51.660;5.616;2023-03-23T05:04:52;7.05;;;3.15;;
58196;SDS011;43999;51.660;5.616;2023-03-23T05:07:22;8.63;;;3.83;;
58196;SDS011;43999;51.660;5.616;2023-03-23T05:09:52;6.70;;;3.30;;
58196;SDS011;43999;51.660;5.616;2023-03-23T05:12:21;9.07;;;4.35;;
58196;SDS011;43999;51.660;5.616;2023-03-23T05:14:53;7.38;;;3.25;;
58196;SDS011;43999;51.660;5.616;2023-03-23T05:17:23;5.75;;;2.90;;
58196;SDS011;43999;51.660;5.616;2023-03-23T05:19:52;4.38;;;2.83;;
58196;SDS011;43999;51.660;5.616;2023-03-23T05:22:50;6.45;;;3.17;;
58196;SDS011;43999;51.660;5.616;2023-03-23T05:25:26;5.55;;;3.30;;
58196;SDS011;43999;51.660;5.616;2023-03-23T05:28:03;7.05;;;3.60;;
58196;SDS011;43999;51.660;5.616;2023-03-23T05:30:52;7.97;;;3.25;;
58196;SDS011;43999;51.660;5.616;2023-03-23T05:33:23;9.45;;;2.88;;
58196;SDS011;43999;51.660;5.616;2023-03-23T05:36:02;7.82;;;2.70;;
58196;SDS011;43999;51.660;5.616;2023-03-23T05:38:40;7.03;;;3.38;;
58196;SDS011;43999;51.660;5.616;2023-03-23T05:41:14;5.40;;;3.17;;
58196;SDS011;43999;51.660;5.616;2023-03-23T05:43:41;6.60;;;3.58;;
58196;SDS011;43999;51.660;5.616;2023-03-23T05:46:26;7.43;;;2.67;;
58196;SDS011;43999;51.660;5.616;2023-03-23T05:48:56;6.30;;;2.67;;
58196;SDS011;43999;51.660;5.616;2023-03-23T05:51:29;4.45;;;2.53;;
58196;SDS011;43999;51.660;5.616;2023-03-23T05:56:22;7.15;;;3.13;;
58196;SDS011;43999;51.660;5.616;2023-03-23T05:59:15;7.20;;;2.58;;
58196;SDS011;43999;51.660;5.616;2023-03-23T06:01:44;9.50;;;3.72;;
58196;SDS011;43999;51.660;5.616;2023-03-23T06:04:10;5.70;;;2.67;;
58196;SDS011;43999;51.660;5.616;2023-03-23T06:06:56;6.40;;;3.38;;
58196;SDS011;43999;51.660;5.616;2023-03-23T06:09:23;4.38;;;2.60;;
58196;SDS011;43999;51.660;5.616;2023-03-23T06:12:05;6.00;;;3.00;;
58196;SDS011;43999;51.660;5.616;2023-03-23T06:14:47;9.02;;;3.55;;
58196;SDS011;43999;51.660;5.616;2023-03-23T06:17:17;4.47;;;2.75;;
58196;SDS011;43999;51.660;5.616;2023-03-23T06:19:46;8.20;;;3.95;;
58196;SDS011;43999;51.660;5.616;2023-03-23T06:22:15;5.85;;;3.30;;
58196;SDS011;43999;51.660;5.616;2023-03-23T06:24:43;8.98;;;3.30;;
58196;SDS011;43999;51.660;5.616;2023-03-23T06:27:14;10.18;;;3.63;;
58196;SDS011;43999;51.660;5.616;2023-03-23T06:29:44;8.80;;;4.22;;
58196;SDS011;43999;51.660;5.616;2023-03-23T06:32:10;7.07;;;3.35;;
58196;SDS011;43999;51.660;5.616;2023-03-23T06:34:41;11.13;;;4.82;;
58196;SDS011;43999;51.660;5.616;2023-03-23T06:37:38;9.45;;;4.15;;
58196;SDS011;43999;51.660;5.616;2023-03-23T06:40:12;8.32;;;3.50;;
58196;SDS011;43999;51.660;5.616;2023-03-23T06:42:43;9.40;;;2.90;;
58196;SDS011;43999;51.660;5.616;2023-03-23T06:45:39;12.52;;;5.00;;
58196;SDS011;43999;51.660;5.616;2023-03-23T06:48:25;7.20;;;4.60;;
58196;SDS011;43999;51.660;5.616;2023-03-23T06:50:52;12.23;;;3.63;;
58196;SDS011;43999;51.660;5.616;2023-03-23T06:53:20;7.97;;;4.47;;
58196;SDS011;43999;51.660;5.616;2023-03-23T06:55:48;24.40;;;3.72;;
58196;SDS011;43999;51.660;5.616;2023-03-23T06:58:15;7.13;;;3.08;;
58196;SDS011;43999;51.660;5.616;2023-03-23T07:03:11;9.77;;;3.97;;
58196;SDS011;43999;51.660;5.616;2023-03-23T07:05:38;6.88;;;3.67;;
58196;SDS011;43999;51.660;5.616;2023-03-23T07:08:05;7.70;;;3.92;;
58196;SDS011;43999;51.660;5.616;2023-03-23T07:10:35;4.13;;;2.80;;
58196;SDS011;43999;51.660;5.616;2023-03-23T07:13:04;14.82;;;4.55;;
58196;SDS011;43999;51.660;5.616;2023-03-23T07:15:41;12.25;;;5.13;;
58196;SDS011;43999;51.660;5.616;2023-03-23T07:18:07;10.20;;;3.47;;
58196;SDS011;43999;51.660;5.616;2023-03-23T07:20:42;9.07;;;4.28;;
58196;SDS011;43999;51.660;5.616;2023-03-23T07:25:42;12.45;;;4.28;;
58196;SDS011;43999;51.660;5.616;2023-03-23T07:28:16;8.13;;;4.00;;
58196;SDS011;43999;51.660;5.616;2023-03-23T07:30:42;7.60;;;3.95;;
58196;SDS011;43999;51.660;5.616;2023-03-23T07:33:10;6.90;;;4.15;;
58196;SDS011;43999;51.660;5.616;2023-03-23T07:35:37;9.13;;;3.63;;
58196;SDS011;43999;51.660;5.616;2023-03-23T07:38:10;9.20;;;3.90;;
58196;SDS011;43999;51.660;5.616;2023-03-23T07:40:37;7.63;;;3.72;;
58196;SDS011;43999;51.660;5.616;2023-03-23T07:43:13;5.47;;;3.08;;
58196;SDS011;43999;51.660;5.616;2023-03-23T07:45:59;7.47;;;3.75;;
58196;SDS011;43999;51.660;5.616;2023-03-23T07:48:48;5.80;;;3.60;;
58196;SDS011;43999;51.660;5.616;2023-03-23T07:51:18;11.32;;;3.40;;
58196;SDS011;43999;51.660;5.616;2023-03-23T07:53:48;6.97;;;2.83;;
58196;SDS011;43999;51.660;5.616;2023-03-23T07:56:34;4.00;;;1.75;;
58196;SDS011;43999;51.660;5.616;2023-03-23T07:59:22;2.45;;;1.48;;
58196;SDS011;43999;51.660;5.616;2023-03-23T08:01:49;7.70;;;2.67;;
58196;SDS011;43999;51.660;5.616;2023-03-23T08:04:41;2.65;;;1.13;;
58196;SDS011;43999;51.660;5.616;2023-03-23T08:07:28;4.20;;;1.73;;
58196;SDS011;43999;51.660;5.616;2023-03-23T08:10:15;2.20;;;1.30;;
58196;SDS011;43999;51.660;5.616;2023-03-23T08:13:03;3.13;;;1.80;;
58196;SDS011;43999;51.660;5.616;2023-03-23T08:15:59;2.28;;;1.63;;
58196;SDS011;43999;51.660;5.616;2023-03-23T08:18:47;2.47;;;1.40;;
58196;SDS011;43999;51.660;5.616;2023-03-23T08:21:36;2.22;;;1.42;;
58196;SDS011;43999;51.660;5.616;2023-03-23T08:24:24;3.63;;;1.70;;
58196;SDS011;43999;51.660;5.616;2023-03-23T08:27:14;3.72;;;1.48;;
58196;SDS011;43999;51.660;5.616;2023-03-23T08:30:04;2.50;;;1.25;;
58196;SDS011;43999;51.660;5.616;2023-03-23T08:32:45;3.13;;;1.77;;
58196;SDS011;43999;51.660;5.616;2023-03-23T08:35:13;4.50;;;2.42;;
58196;SDS011;43999;51.660;5.616;2023-03-23T08:38:04;4.90;;;2.17;;
58196;SDS011;43999;51.660;5.616;2023-03-23T08:40:34;3.42;;;2.17;;
58196;SDS011;43999;51.660;5.616;2023-03-23T08:43:19;6.40;;;2.60;;
58196;SDS011;43999;51.660;5.616;2023-03-23T08:46:19;3.40;;;1.90;;
58196;SDS011;43999;51.660;5.616;2023-03-23T08:49:13;3.70;;;2.55;;
58196;SDS011;43999;51.660;5.616;2023-03-23T08:51:58;5.43;;;2.60;;
58196;SDS011;43999;51.660;5.616;2023-03-23T08:54:48;4.15;;;2.00;;
58196;SDS011;43999;51.660;5.616;2023-03-23T08:57:46;4.82;;;1.95;;
58196;SDS011;43999;51.660;5.616;2023-03-23T09:00:22;2.75;;;1.63;;
58196;SDS011;43999;51.660;5.616;2023-03-23T09:03:17;5.07;;;2.28;;
58196;SDS011;43999;51.660;5.616;2023-03-23T09:06:07;3.45;;;1.83;;
58196;SDS011;43999;51.660;5.616;2023-03-23T09:08:44;9.50;;;2.83;;
58196;SDS011;43999;51.660;5.616;2023-03-23T09:11:10;5.18;;;2.35;;
58196;SDS011;43999;51.660;5.616;2023-03-23T09:16:05;6.20;;;2.38;;
58196;SDS011;43999;51.660;5.616;2023-03-23T09:18:34;3.95;;;1.63;;
58196;SDS011;43999;51.660;5.616;2023-03-23T09:21:01;4.85;;;2.47;;
58196;SDS011;43999;51.660;5.616;2023-03-23T09:23:29;4.22;;;1.90;;
58196;SDS011;43999;51.660;5.616;2023-03-23T09:25:57;5.65;;;2.63;;
58196;SDS011;43999;51.660;5.616;2023-03-23T09:28:26;3.47;;;1.70;;
58196;SDS011;43999;51.660;5.616;2023-03-23T09:30:54;6.03;;;2.28;;
58196;SDS011;43999;51.660;5.616;2023-03-23T09:33:24;4.47;;;2.42;;
58196;SDS011;43999;51.660;5.616;2023-03-23T09:35:52;6.07;;;2.63;;
58196;SDS011;43999;51.660;5.616;2023-03-23T09:38:18;6.78;;;2.63;;
58196;SDS011;43999;51.660;5.616;2023-03-23T09:40:49;8.40;;;2.70;;
58196;SDS011;43999;51.660;5.616;2023-03-23T09:47:44;4.93;;;2.25;;
58196;SDS011;43999;51.660;5.616;2023-03-23T09:50:28;3.53;;;2.28;;
58196;SDS011;43999;51.660;5.616;2023-03-23T09:53:05;4.97;;;2.47;;
58196;SDS011;43999;51.660;5.616;2023-03-23T09:55:48;5.97;;;2.42;;
58196;SDS011;43999;51.660;5.616;2023-03-23T10:01:14;7.15;;;2.95;;
58196;SDS011;43999;51.660;5.616;2023-03-23T10:07:45;5.07;;;3.17;;
58196;SDS011;43999;51.660;5.616;2023-03-23T10:09:57;6.10;;;2.50;;
58196;SDS011;43999;51.660;5.616;2023-03-23T10:13:31;6.72;;;3.03;;
58196;SDS011;43999;51.660;5.616;2023-03-23T10:15:50;4.40;;;1.98;;
58196;SDS011;43999;51.660;5.616;2023-03-23T10:18:24;8.43;;;2.90;;
58196;SDS011;43999;51.660;5.616;2023-03-23T10:21:10;6.28;;;2.92;;
58196;SDS011;43999;51.660;5.616;2023-03-23T10:31:35;6.63;;;2.40;;
58196;SDS011;43999;51.660;5.616;2023-03-23T10:34:16;6.40;;;2.90;;
58196;SDS011;43999;51.660;5.616;2023-03-23T10:37:14;7.88;;;2.70;;
58196;SDS011;43999;51.660;5.616;2023-03-23T10:40:18;6.50;;;3.78;;
58196;SDS011;43999;51.660;5.616;2023-03-23T10:42:51;6.63;;;3.30;;
58196;SDS011;43999;51.660;5.616;2023-03-23T10:50:52;5.50;;;2.97;;
58196;SDS011;43999;51.660;5.616;2023-03-23T10:53:34;5.18;;;3.15;;
58196;SDS011;43999;51.660;5.616;2023-03-23T10:56:28;8.38;;;4.35;;
58196;SDS011;43999;51.660;5.616;2023-03-23T10:59:19;7.30;;;4.07;;
58196;SDS011;43999;51.660;5.616;2023-03-23T11:01:57;8.73;;;4.40;;
58196;SDS011;43999;51.660;5.616;2023-03-23T11:04:28;6.65;;;3.40;;
58196;SDS011;43999;51.660;5.616;2023-03-23T11:06:59;7.40;;;3.10;;
58196;SDS011;43999;51.660;5.616;2023-03-23T11:09:39;6.72;;;3.70;;
58196;SDS011;43999;51.660;5.616;2023-03-23T11:12:19;7.50;;;3.40;;
58196;SDS011;43999;51.660;5.616;2023-03-23T11:14:47;9.02;;;4.05;;
58196;SDS011;43999;51.660;5.616;2023-03-23T11:17:24;5.38;;;3.33;;
58196;SDS011;43999;51.660;5.616;2023-03-23T11:19:53;7.70;;;3.53;;
58196;SDS011;43999;51.660;5.616;2023-03-23T11:22:31;5.60;;;4.05;;
58196;SDS011;43999;51.660;5.616;2023-03-23T11:25:03;5.45;;;2.92;;
58196;SDS011;43999;51.660;5.616;2023-03-23T11:27:31;5.65;;;3.08;;
58196;SDS011;43999;51.660;5.616;2023-03-23T11:30:22;7.10;;;4.13;;
58196;SDS011;43999;51.660;5.616;2023-03-23T11:32:58;5.55;;;2.75;;
58196;SDS011;43999;51.660;5.616;2023-03-23T11:35:28;5.05;;;2.35;;
58196;SDS011;43999;51.660;5.616;2023-03-23T11:37:58;5.55;;;3.60;;
58196;SDS011;43999;51.660;5.616;2023-03-23T11:40:26;9.02;;;3.15;;
58196;SDS011;43999;51.660;5.616;2023-03-23T11:45:40;5.00;;;2.72;;
58196;SDS011;43999;51.660;5.616;2023-03-23T11:48:43;10.93;;;3.50;;
58196;SDS011;43999;51.660;5.616;2023-03-23T11:51:30;7.15;;;2.92;;
58196;SDS011;43999;51.660;5.616;2023-03-23T11:54:30;4.82;;;2.72;;
58196;SDS011;43999;51.660;5.616;2023-03-23T11:57:16;5.03;;;2.88;;
58196;SDS011;43999;51.660;5.616;2023-03-23T11:59:43;7.72;;;3.60;;
58196;SDS011;43999;51.660;5.616;2023-03-23T12:14:39;10.13;;;3.05;;
58196;SDS011;43999;51.660;5.616;2023-03-23T12:27:03;5.03;;;2.97;;
58196;SDS011;43999;51.660;5.616;2023-03-23T12:29:58;5.70;;;2.58;;
58196;SDS011;43999;51.660;5.616;2023-03-23T12:43:19;4.78;;;3.58;;
58196;SDS011;43999;51.660;5.616;2023-03-23T12:46:29;3.85;;;2.40;;
58196;SDS011;43999;51.660;5.616;2023-03-23T12:55:49;8.50;;;3.47;;
58196;SDS011;43999;51.660;5.616;2023-03-23T12:58:50;4.72;;;2.28;;
58196;SDS011;43999;51.660;5.616;2023-03-23T13:01:48;8.00;;;3.35;;
58196;SDS011;43999;51.660;5.616;2023-03-23T13:04:49;6.95;;;3.75;;
58196;SDS011;43999;51.660;5.616;2023-03-23T13:07:33;6.78;;;2.65;;
58196;SDS011;43999;51.660;5.616;2023-03-23T13:10:18;7.38;;;3.40;;
58196;SDS011;43999;51.660;5.616;2023-03-23T13:12:54;6.63;;;3.17;;
58196;SDS011;43999;51.660;5.616;2023-03-23T13:24:10;9.32;;;3.47;;
58196;SDS011;43999;51.660;5.616;2023-03-23T13:26:49;7.05;;;3.33;;
58196;SDS011;43999;51.660;5.616;2023-03-23T13:29:20;8.23;;;3.42;;
58196;SDS011;43999;51.660;5.616;2023-03-23T13:32:03;8.95;;;3.83;;
58196;SDS011;43999;51.660;5.616;2023-03-23T13:34:43;6.30;;;3.58;;
58196;SDS011;43999;51.660;5.616;2023-03-23T13:37:24;7.53;;;3.60;;
58196;SDS011;43999;51.660;5.616;2023-03-23T13:42:28;8.55;;;3.97;;
58196;SDS011;43999;51.660;5.616;2023-03-23T13:45:24;8.90;;;3.40;;
58196;SDS011;43999;51.660;5.616;2023-03-23T13:53:28;8.02;;;3.25;;
58196;SDS011;43999;51.660;5.616;2023-03-23T13:56:16;8.95;;;5.28;;
58196;SDS011;43999;51.660;5.616;2023-03-23T13:58:47;12.82;;;5.13;;
58196;SDS011;43999;51.660;5.616;2023-03-23T14:01:36;11.05;;;5.63;;
58196;SDS011;43999;51.660;5.616;2023-03-23T14:04:13;8.98;;;5.25;;
58196;SDS011;43999;51.660;5.616;2023-03-23T14:06:48;7.80;;;3.92;;
58196;SDS011;43999;51.660;5.616;2023-03-23T14:09:37;8.88;;;3.85;;
58196;SDS011;43999;51.660;5.616;2023-03-23T14:12:28;9.00;;;4.20;;
58196;SDS011;43999;51.660;5.616;2023-03-23T14:15:01;5.68;;;3.42;;
58196;SDS011;43999;51.660;5.616;2023-03-23T14:17:39;7.53;;;4.57;;
58196;SDS011;43999;51.660;5.616;2023-03-23T14:20:16;6.97;;;4.53;;
58196;SDS011;43999;51.660;5.616;2023-03-23T14:23:00;9.98;;;4.95;;
58196;SDS011;43999;51.660;5.616;2023-03-23T14:25:27;6.47;;;3.40;;
58196;SDS011;43999;51.660;5.616;2023-03-23T14:27:58;6.47;;;3.92;;
58196;SDS011;43999;51.660;5.616;2023-03-23T14:30:26;5.50;;;3.20;;
58196;SDS011;43999;51.660;5.616;2023-03-23T14:33:03;7.80;;;3.42;;
58196;SDS011;43999;51.660;5.616;2023-03-23T14:35:37;6.85;;;3.17;;
58196;SDS011;43999;51.660;5.616;2023-03-23T14:38:16;7.88;;;3.38;;
58196;SDS011;43999;51.660;5.616;2023-03-23T14:40:50;7.05;;;3.28;;
58196;SDS011;43999;51.660;5.616;2023-03-23T14:43:17;5.63;;;3.38;;
58196;SDS011;43999;51.660;5.616;2023-03-23T14:45:52;5.05;;;3.38;;
58196;SDS011;43999;51.660;5.616;2023-03-23T14:48:23;5.35;;;2.88;;
58196;SDS011;43999;51.660;5.616;2023-03-23T14:50:52;5.60;;;3.65;;
58196;SDS011;43999;51.660;5.616;2023-03-23T14:53:32;3.85;;;2.80;;
58196;SDS011;43999;51.660;5.616;2023-03-23T14:59:20;5.88;;;3.17;;
58196;SDS011;43999;51.660;5.616;2023-03-23T15:01:47;6.15;;;3.42;;
58196;SDS011;43999;51.660;5.616;2023-03-23T15:04:18;4.97;;;3.60;;
58196;SDS011;43999;51.660;5.616;2023-03-23T15:06:51;6.10;;;3.63;;
58196;SDS011;43999;51.660;5.616;2023-03-23T15:09:26;5.85;;;2.75;;
58196;SDS011;43999;51.660;5.616;2023-03-23T15:11:55;7.75;;;3.90;;
58196;SDS011;43999;51.660;5.616;2023-03-23T15:14:36;5.55;;;2.70;;
58196;SDS011;43999;51.660;5.616;2023-03-23T15:17:25;8.95;;;3.63;;
58196;SDS011;43999;51.660;5.616;2023-03-23T15:20:00;6.70;;;3.78;;
58196;SDS011;43999;51.660;5.616;2023-03-23T15:23:07;6.40;;;3.15;;
58196;SDS011;43999;51.660;5.616;2023-03-23T15:25:40;8.70;;;3.55;;
58196;SDS011;43999;51.660;5.616;2023-03-23T15:28:19;5.55;;;2.95;;
58196;SDS011;43999;51.660;5.616;2023-03-23T15:31:02;8.65;;;3.40;;
58196;SDS011;43999;51.660;5.616;2023-03-23T15:33:38;5.20;;;2.85;;
58196;SDS011;43999;51.660;5.616;2023-03-23T15:36:08;7.95;;;3.50;;
58196;SDS011;43999;51.660;5.616;2023-03-23T15:38:43;7.07;;;4.05;;
58196;SDS011;43999;51.660;5.616;2023-03-23T15:41:24;10.50;;;3.88;;
58196;SDS011;43999;51.660;5.616;2023-03-23T15:44:11;10.02;;;4.57;;
58196;SDS011;43999;51.660;5.616;2023-03-23T15:46:50;10.23;;;3.00;;
58196;SDS011;43999;51.660;5.616;2023-03-23T15:50:01;8.52;;;3.13;;
58196;SDS011;43999;51.660;5.616;2023-03-23T15:52:39;7.20;;;3.42;;
58196;SDS011;43999;51.660;5.616;2023-03-23T15:55:21;8.77;;;3.97;;
58196;SDS011;43999;51.660;5.616;2023-03-23T15:57:57;6.63;;;3.65;;
58196;SDS011;43999;51.660;5.616;2023-03-23T16:00:25;7.20;;;3.47;;
58196;SDS011;43999;51.660;5.616;2023-03-23T16:02:59;6.32;;;3.90;;
58196;SDS011;43999;51.660;5.616;2023-03-23T16:05:32;9.23;;;3.67;;
58196;SDS011;43999;51.660;5.616;2023-03-23T16:08:00;8.90;;;5.10;;
58196;SDS011;43999;51.660;5.616;2023-03-23T16:10:28;8.75;;;4.75;;
58196;SDS011;43999;51.660;5.616;2023-03-23T16:12:58;6.97;;;5.03;;
58196;SDS011;43999;51.660;5.616;2023-03-23T16:15:26;6.80;;;3.88;;
58196;SDS011;43999;51.660;5.616;2023-03-23T16:17:53;9.02;;;4.57;;
58196;SDS011;43999;51.660;5.616;2023-03-23T16:20:21;7.40;;;3.40;;
58196;SDS011;43999;51.660;5.616;2023-03-23T16:22:50;6.57;;;3.83;;
58196;SDS011;43999;51.660;5.616;2023-03-23T16:25:18;6.53;;;3.63;;
58196;SDS011;43999;51.660;5.616;2023-03-23T16:27:47;7.38;;;3.95;;
58196;SDS011;43999;51.660;5.616;2023-03-23T16:32:58;7.03;;;4.05;;
58196;SDS011;43999;51.660;5.616;2023-03-23T16:35:28;7.20;;;4.00;;
58196;SDS011;43999;51.660;5.616;2023-03-23T16:37:58;5.80;;;3.55;;
58196;SDS011;43999;51.660;5.616;2023-03-23T16:40:37;7.05;;;3.70;;
58196;SDS011;43999;51.660;5.616;2023-03-23T16:43:07;9.32;;;4.25;;
58196;SDS011;43999;51.660;5.616;2023-03-23T16:45:37;6.03;;;3.85;;
58196;SDS011;43999;51.660;5.616;2023-03-23T16:48:11;5.80;;;3.03;;
58196;SDS011;43999;51.660;5.616;2023-03-23T16:50:42;8.45;;;3.70;;
58196;SDS011;43999;51.660;5.616;2023-03-23T16:53:11;8.85;;;3.40;;
58196;SDS011;43999;51.660;5.616;2023-03-23T16:55:38;6.65;;;4.05;;
58196;SDS011;43999;51.660;5.616;2023-03-23T16:58:06;5.80;;;3.30;;
58196;SDS011;43999;51.660;5.616;2023-03-23T17:00:43;7.60;;;4.47;;
58196;SDS011;43999;51.660;5.616;2023-03-23T17:03:17;9.95;;;4.40;;
58196;SDS011;43999;51.660;5.616;2023-03-23T17:05:47;5.88;;;4.35;;
58196;SDS011;43999;51.660;5.616;2023-03-23T17:08:18;7.53;;;4.53;;
58196;SDS011;43999;51.660;5.616;2023-03-23T17:10:47;6.32;;;4.20;;
58196;SDS011;43999;51.660;5.616;2023-03-23T17:13:15;7.28;;;4.75;;
58196;SDS011;43999;51.660;5.616;2023-03-23T17:15:43;6.68;;;4.07;;
58196;SDS011;43999;51.660;5.616;2023-03-23T17:18:13;8.27;;;4.88;;
58196;SDS011;43999;51.660;5.616;2023-03-23T17:20:41;7.13;;;5.15;;
58196;SDS011;43999;51.660;5.616;2023-03-23T17:23:10;8.13;;;5.00;;
58196;SDS011;43999;51.660;5.616;2023-03-23T17:25:37;7.50;;;4.70;;
58196;SDS011;43999;51.660;5.616;2023-03-23T17:28:05;9.02;;;5.93;;
58196;SDS011;43999;51.660;5.616;2023-03-23T17:30:33;10.68;;;5.25;;
58196;SDS011;43999;51.660;5.616;2023-03-23T17:33:01;13.02;;;5.97;;
58196;SDS011;43999;51.660;5.616;2023-03-23T17:35:28;10.15;;;6.22;;
58196;SDS011;43999;51.660;5.616;2023-03-23T17:37:56;9.75;;;4.70;;
58196;SDS011;43999;51.660;5.616;2023-03-23T17:40:25;8.02;;;6.50;;
58196;SDS011;43999;51.660;5.616;2023-03-23T17:42:53;7.65;;;5.63;;
58196;SDS011;43999;51.660;5.616;2023-03-23T17:45:20;10.63;;;5.63;;
58196;SDS011;43999;51.660;5.616;2023-03-23T17:47:48;10.13;;;5.90;;